Nisijima — JD3962 — position and weather

sailwx.info

Track history (hours):
 
Tides and Currents Weather Stations Pressure Air Temp Water Temp Dewpoint Dewpoint Depression Visibility Wind Speed Wind Dir Waves Ship Positions

Nisijima

Last reported at 2018-Feb-18 23:58 UTC. Time now 2018-Feb-19 00:04 UTC.
Position N 34°35' E 135°27'.

Length 74 m.

Type: Ship. MMSI: 431007231.

Date/timePositionNaut miles runAvg speedWind from/ knotsBaromVisibWave heightAir tempDewpointWater temp
2018-Feb-18 23:58N 34°35' E 135°27'0 0.0
2018-Feb-18 23:28N 34°35' E 135°27'0 0.0
2018-Feb-18 22:58N 34°35' E 135°27'0 0.0
2018-Feb-18 22:28N 34°35' E 135°27'0 0.0
2018-Feb-18 21:58N 34°35' E 135°27'0 0.0
2018-Feb-18 21:28N 34°35' E 135°27'0 0.0
2018-Feb-18 20:58N 34°35' E 135°27'0 0.9
2018-Feb-18 20:30N 34°35' E 135°27'510.0
2018-Feb-18 20:00N 34°36' E 135°21'611.7
2018-Feb-18 19:30N 34°35' E 135°14'612.4
2018-Feb-18 19:00N 34°35' E 135°06'714.5
2018-Feb-18 18:30N 34°37' E 134°58'713.9
2018-Feb-18 17:59N 34°39' E 134°49'612.8
2018-Feb-18 17:30N 34°43' E 134°43'9 0.2
2018-Feb-16 23:35N 34°41' E 134°33'0 0.0
2018-Feb-16 12:47N 34°41' E 134°33'0 0.2
2018-Feb-16 12:29N 34°41' E 134°33'0 0.0
2018-Feb-16 11:59N 34°41' E 134°33'0 0.0
2018-Feb-16 11:29N 34°41' E 134°33'0 0.0
2018-Feb-16 10:59N 34°41' E 134°33'0 0.0
2018-Feb-16 10:29N 34°41' E 134°33'0 0.0
2018-Feb-16 09:59N 34°41' E 134°33'0 0.1
2018-Feb-16 09:29N 34°41' E 134°33'510.6
2018-Feb-16 08:59N 34°41' E 134°39'612.9
2018-Feb-16 08:30N 34°39' E 134°47'612.7
2018-Feb-16 08:00N 34°37' E 134°54'612.0
2018-Feb-16 07:30N 34°37' E 135°02'611.7
2018-Feb-16 07:00N 34°36' E 135°08'612.8
2018-Feb-16 06:30N 34°34' E 135°16'612.5
2018-Feb-16 06:00N 34°32' E 135°23'0 0.6
2018-Feb-16 05:29N 34°31' E 135°23'0 0.0
2018-Feb-16 04:53N 34°31' E 135°23'0 0.0
2018-Feb-16 04:29N 34°31' E 135°23'0 0.0
2018-Feb-16 03:59N 34°31' E 135°23'0 0.0
2018-Feb-16 03:29N 34°31' E 135°23'2 3.8
2018-Feb-16 03:00N 34°33' E 135°23'4 7.6
2018-Feb-16 02:30N 34°35' E 135°27'0 0.2
2018-Feb-16 01:59N 34°35' E 135°27'0 0.0
2018-Feb-16 01:29N 34°35' E 135°27'0 0.0
2018-Feb-16 00:59N 34°35' E 135°27'0 0.0
2018-Feb-16 00:29N 34°35' E 135°27'0 0.0
2018-Feb-15 23:59N 34°35' E 135°27'0 0.0
2018-Feb-15 23:29N 34°35' E 135°27'0 0.0
2018-Feb-15 22:59N 34°35' E 135°27'0 0.0
2018-Feb-15 22:29N 34°35' E 135°27'0 0.0
2018-Feb-15 21:59N 34°35' E 135°27'0 0.0
2018-Feb-15 21:29N 34°35' E 135°27'0 0.0
2018-Feb-15 20:59N 34°35' E 135°27'0 0.0
2018-Feb-15 20:29N 34°35' E 135°27'0 0.0
2018-Feb-15 19:59N 34°35' E 135°27'0 0.0
2018-Feb-15 19:29N 34°35' E 135°27'0 0.0
2018-Feb-15 18:56N 34°35' E 135°27'0 0.0
2018-Feb-15 18:29N 34°35' E 135°27'0 0.0
2018-Feb-15 17:56N 34°35' E 135°27'0 0.0
2018-Feb-15 17:29N 34°35' E 135°27'0 0.0
2018-Feb-15 16:59N 34°35' E 135°27'0 0.0
2018-Feb-15 16:29N 34°35' E 135°27'0 0.0
2018-Feb-15 15:59N 34°35' E 135°27'0 0.0
2018-Feb-15 15:29N 34°35' E 135°27'0 0.0
2018-Feb-15 14:59N 34°35' E 135°27'0 0.0
2018-Feb-15 14:29N 34°35' E 135°27'0 0.0
2018-Feb-15 13:59N 34°35' E 135°27'0 0.0
2018-Feb-15 13:29N 34°35' E 135°27'0 0.0
2018-Feb-15 12:59N 34°35' E 135°27'0 0.0
2018-Feb-15 12:29N 34°35' E 135°27'0 0.0
2018-Feb-15 11:59N 34°35' E 135°27'0 0.0
2018-Feb-15 11:29N 34°35' E 135°27'0 0.0
2018-Feb-15 10:59N 34°35' E 135°27'0 0.0
2018-Feb-15 10:29N 34°35' E 135°27'0 0.0
2018-Feb-15 09:59N 34°35' E 135°27'0 0.0
2018-Feb-15 09:29N 34°35' E 135°27'0 0.0
2018-Feb-15 08:59N 34°35' E 135°27'0 0.0
2018-Feb-15 08:29N 34°35' E 135°27'0 0.0
2018-Feb-15 07:59N 34°35' E 135°27'0 0.0
2018-Feb-15 07:29N 34°35' E 135°27'0 0.0
2018-Feb-15 06:59N 34°35' E 135°27'0 0.0
2018-Feb-15 06:23N 34°35' E 135°27'0 0.1
2018-Feb-15 05:59N 34°35' E 135°27'3 6.3
2018-Feb-15 05:30N 34°35' E 135°24'4 7.4
2018-Feb-15 04:59N 34°31' E 135°23'0 0.0
2018-Feb-15 04:29N 34°31' E 135°23'0 0.0
2018-Feb-15 03:59N 34°31' E 135°23'0 0.1
2018-Feb-15 03:29N 34°31' E 135°23'3 5.4
2018-Feb-15 03:00N 34°34' E 135°23'611.8
2018-Feb-15 02:30N 34°39' E 135°25'1 1.8
2018-Feb-15 01:58N 34°40' E 135°25'0 0.0
2018-Feb-15 01:28N 34°40' E 135°25'0 0.0
2018-Feb-15 00:59N 34°40' E 135°25'0 0.0
2018-Feb-15 00:28N 34°40' E 135°25'0 0.0
2018-Feb-14 23:58N 34°40' E 135°25'0 0.0
2018-Feb-14 23:29N 34°40' E 135°25'0 0.0
2018-Feb-14 22:58N 34°40' E 135°25'0 0.1
2018-Feb-14 22:30N 34°40' E 135°25'1 2.0
2018-Feb-14 22:00N 34°40' E 135°26'1 1.4
2018-Feb-14 21:28N 34°40' E 135°27'0 0.0
2018-Feb-14 20:58N 34°40' E 135°27'0 0.0
2018-Feb-14 20:28N 34°40' E 135°27'0 0.0
2018-Feb-14 19:58N 34°40' E 135°27'0 0.0
2018-Feb-14 19:28N 34°40' E 135°27'0 0.0
2018-Feb-14 18:55N 34°40' E 135°27'0 0.0
2018-Feb-14 18:28N 34°40' E 135°27'0 0.0
2018-Feb-14 17:58N 34°40' E 135°27'0 0.0
2018-Feb-14 17:28N 34°40' E 135°27'0 0.0
2018-Feb-14 16:58N 34°40' E 135°27'0 0.0
2018-Feb-14 16:28N 34°40' E 135°27'0 0.0
2018-Feb-14 15:58N 34°40' E 135°27'0 0.0
2018-Feb-14 15:28N 34°40' E 135°27'0 0.0
2018-Feb-14 14:58N 34°40' E 135°27'0 0.0
2018-Feb-14 14:28N 34°40' E 135°27'0 0.0
2018-Feb-14 13:58N 34°40' E 135°27'0 0.0
2018-Feb-14 13:28N 34°40' E 135°27'0 0.0
2018-Feb-14 12:55N 34°40' E 135°27'0 0.0
2018-Feb-14 12:28N 34°40' E 135°27'0 0.0
2018-Feb-14 11:58N 34°40' E 135°27'0 0.0
2018-Feb-14 11:28N 34°40' E 135°27'0 0.0
2018-Feb-14 10:58N 34°40' E 135°27'0 0.0
2018-Feb-14 10:28N 34°40' E 135°27'0 0.0
2018-Feb-14 09:58N 34°40' E 135°27'0 0.0
2018-Feb-14 09:28N 34°40' E 135°27'0 0.0
2018-Feb-14 08:58N 34°40' E 135°27'0 0.0
2018-Feb-14 08:28N 34°40' E 135°27'0 0.0
2018-Feb-14 07:58N 34°40' E 135°27'0 0.0
2018-Feb-14 07:28N 34°40' E 135°27'0 0.0
2018-Feb-14 06:58N 34°40' E 135°27'0 0.0
2018-Feb-14 06:28N 34°40' E 135°27'2 4.4
2018-Feb-14 06:00N 34°39' E 135°25'611.6
2018-Feb-14 05:30N 34°33' E 135°23'2 4.3
2018-Feb-14 05:00N 34°31' E 135°23'0 0.0
2018-Feb-14 04:30N 34°31' E 135°23'0 0.0
2018-Feb-14 04:00N 34°31' E 135°23'0 0.0
2018-Feb-14 03:30N 34°31' E 135°23'3 6.0
2018-Feb-14 03:00N 34°34' E 135°23'511.1
2018-Feb-14 02:31N 34°40' E 135°25'1 1.8
2018-Feb-14 01:59N 34°40' E 135°25'0 0.0
2018-Feb-14 01:29N 34°40' E 135°25'0 0.0
2018-Feb-14 00:59N 34°40' E 135°25'0 0.0
2018-Feb-14 00:29N 34°40' E 135°25'0 0.0
2018-Feb-13 23:59N 34°40' E 135°25'0 0.0
2018-Feb-13 23:29N 34°40' E 135°25'0 0.0
2018-Feb-13 22:59N 34°40' E 135°25'0 0.1
2018-Feb-13 22:30N 34°40' E 135°25'1 2.0
2018-Feb-13 22:00N 34°40' E 135°26'1 1.1
2018-Feb-13 21:26N 34°40' E 135°27'0 0.0
2018-Feb-13 20:59N 34°40' E 135°27'0 0.0
2018-Feb-13 20:29N 34°40' E 135°27'0 0.0
2018-Feb-13 19:56N 34°40' E 135°27'0 0.0
2018-Feb-13 19:29N 34°40' E 135°27'0 0.0
2018-Feb-13 18:59N 34°40' E 135°27'0 0.0
2018-Feb-13 18:29N 34°40' E 135°27'0 0.0
2018-Feb-13 17:59N 34°40' E 135°27'0 0.0
2018-Feb-13 17:29N 34°40' E 135°27'0 0.0
2018-Feb-13 16:59N 34°40' E 135°27'0 0.0
2018-Feb-13 16:29N 34°40' E 135°27'0 0.0
2018-Feb-13 15:59N 34°40' E 135°27'0 0.0
2018-Feb-13 15:29N 34°40' E 135°27'0 0.0
2018-Feb-13 14:59N 34°40' E 135°27'0 0.0
2018-Feb-13 14:26N 34°40' E 135°27'0 0.0
2018-Feb-13 13:59N 34°40' E 135°27'0 0.0
2018-Feb-13 13:29N 34°40' E 135°27'0 0.0
2018-Feb-13 12:59N 34°40' E 135°27'0 0.0
2018-Feb-13 12:29N 34°40' E 135°27'0 0.0
2018-Feb-13 11:59N 34°40' E 135°27'0 0.0
2018-Feb-13 11:29N 34°40' E 135°27'0 0.0
2018-Feb-13 10:59N 34°40' E 135°27'0 0.0
2018-Feb-13 10:29N 34°40' E 135°27'0 0.0
2018-Feb-13 09:59N 34°40' E 135°27'0 0.0
2018-Feb-13 09:29N 34°40' E 135°27'0 0.0
2018-Feb-13 08:59N 34°40' E 135°27'0 0.0
2018-Feb-13 08:29N 34°40' E 135°27'0 0.0
2018-Feb-13 07:59N 34°40' E 135°27'0 0.0
2018-Feb-13 07:26N 34°40' E 135°27'0 0.0
2018-Feb-13 06:59N 34°40' E 135°27'0 0.0
2018-Feb-13 06:29N 34°40' E 135°27'0 0.0
2018-Feb-13 05:59N 34°40' E 135°27'0 0.0
2018-Feb-13 05:29N 34°40' E 135°27'0 0.0
2018-Feb-13 04:56N 34°40' E 135°27'0 0.0
2018-Feb-13 04:29N 34°40' E 135°27'0 0.0
2018-Feb-13 03:59N 34°40' E 135°27'0 0.0
2018-Feb-13 03:29N 34°40' E 135°27'0 0.0
2018-Feb-13 02:59N 34°40' E 135°27'0 0.0
2018-Feb-13 02:29N 34°40' E 135°27'0 0.0
2018-Feb-13 01:56N 34°40' E 135°27'0 0.5
2018-Feb-13 01:29N 34°40' E 135°27'4 8.8
2018-Feb-13 01:00N 34°37' E 135°24'3 6.1
2018-Feb-13 00:29N 34°35' E 135°27'0 0.0
2018-Feb-12 23:59N 34°35' E 135°27'0 0.0
2018-Feb-12 23:29N 34°35' E 135°27'0 0.0
2018-Feb-12 22:59N 34°35' E 135°27'0 0.0
2018-Feb-12 22:29N 34°35' E 135°27'0 0.0
2018-Feb-12 21:59N 34°35' E 135°27'0 0.0
2018-Feb-12 21:29N 34°35' E 135°27'0 0.0
2018-Feb-12 20:56N 34°35' E 135°27'0 0.3
2018-Feb-12 20:30N 34°35' E 135°27'510.0
2018-Feb-12 20:00N 34°36' E 135°21'612.5
2018-Feb-12 19:29N 34°35' E 135°13'612.6
2018-Feb-12 19:00N 34°35' E 135°06'612.7
2018-Feb-12 18:30N 34°37' E 134°59'712.9
2018-Feb-12 17:59N 34°37' E 134°51'  
2018-Feb-09 09:00N 34°37' E 134°55'612.9
2018-Feb-09 08:30N 34°36' E 135°03'713.1
2018-Feb-09 08:00N 34°37' E 135°11'12 2.9
2018-Feb-09 04:00N 34°39' E 135°24'611.8
2018-Feb-09 03:30N 34°38' E 135°17'612.1
2018-Feb-09 03:00N 34°36' E 135°11'  
Track history (hours):
 
Tides and Currents Weather Stations Pressure Air Temp Water Temp Dewpoint Dewpoint Depression Visibility Wind Speed Wind Dir Waves Ship Positions

Nisijima

Last reported at 2018-Feb-18 23:58 UTC. Time now 2018-Feb-19 00:04 UTC.
Position N 34°35' E 135°27'.

Length 74 m.

Type: Ship. MMSI: 431007231.

Date/timePositionNaut miles runAvg speedWind from/ knotsBaromVisibWave heightAir tempDewpointWater temp
2018-Feb-18 23:58N 34°35' E 135°27'0 0.0
2018-Feb-18 23:28N 34°35' E 135°27'0 0.0
2018-Feb-18 22:58N 34°35' E 135°27'0 0.0
2018-Feb-18 22:28N 34°35' E 135°27'0 0.0
2018-Feb-18 21:58N 34°35' E 135°27'0 0.0
2018-Feb-18 21:28N 34°35' E 135°27'0 0.0
2018-Feb-18 20:58N 34°35' E 135°27'0 0.9
2018-Feb-18 20:30N 34°35' E 135°27'510.0
2018-Feb-18 20:00N 34°36' E 135°21'611.7
2018-Feb-18 19:30N 34°35' E 135°14'612.4
2018-Feb-18 19:00N 34°35' E 135°06'714.5
2018-Feb-18 18:30N 34°37' E 134°58'713.9
2018-Feb-18 17:59N 34°39' E 134°49'612.8
2018-Feb-18 17:30N 34°43' E 134°43'9 0.2
2018-Feb-16 23:35N 34°41' E 134°33'0 0.0
2018-Feb-16 12:47N 34°41' E 134°33'0 0.2
2018-Feb-16 12:29N 34°41' E 134°33'0 0.0
2018-Feb-16 11:59N 34°41' E 134°33'0 0.0
2018-Feb-16 11:29N 34°41' E 134°33'0 0.0
2018-Feb-16 10:59N 34°41' E 134°33'0 0.0
2018-Feb-16 10:29N 34°41' E 134°33'0 0.0
2018-Feb-16 09:59N 34°41' E 134°33'0 0.1
2018-Feb-16 09:29N 34°41' E 134°33'510.6
2018-Feb-16 08:59N 34°41' E 134°39'612.9
2018-Feb-16 08:30N 34°39' E 134°47'612.7
2018-Feb-16 08:00N 34°37' E 134°54'612.0
2018-Feb-16 07:30N 34°37' E 135°02'611.7
2018-Feb-16 07:00N 34°36' E 135°08'612.8
2018-Feb-16 06:30N 34°34' E 135°16'612.5
2018-Feb-16 06:00N 34°32' E 135°23'0 0.6
2018-Feb-16 05:29N 34°31' E 135°23'0 0.0
2018-Feb-16 04:53N 34°31' E 135°23'0 0.0
2018-Feb-16 04:29N 34°31' E 135°23'0 0.0
2018-Feb-16 03:59N 34°31' E 135°23'0 0.0
2018-Feb-16 03:29N 34°31' E 135°23'2 3.8
2018-Feb-16 03:00N 34°33' E 135°23'4 7.6
2018-Feb-16 02:30N 34°35' E 135°27'0 0.2
2018-Feb-16 01:59N 34°35' E 135°27'0 0.0
2018-Feb-16 01:29N 34°35' E 135°27'0 0.0
2018-Feb-16 00:59N 34°35' E 135°27'0 0.0
2018-Feb-16 00:29N 34°35' E 135°27'0 0.0
2018-Feb-15 23:59N 34°35' E 135°27'0 0.0
2018-Feb-15 23:29N 34°35' E 135°27'0 0.0
2018-Feb-15 22:59N 34°35' E 135°27'0 0.0
2018-Feb-15 22:29N 34°35' E 135°27'0 0.0
2018-Feb-15 21:59N 34°35' E 135°27'0 0.0
2018-Feb-15 21:29N 34°35' E 135°27'0 0.0
2018-Feb-15 20:59N 34°35' E 135°27'0 0.0
2018-Feb-15 20:29N 34°35' E 135°27'0 0.0
2018-Feb-15 19:59N 34°35' E 135°27'0 0.0
2018-Feb-15 19:29N 34°35' E 135°27'0 0.0
2018-Feb-15 18:56N 34°35' E 135°27'0 0.0
2018-Feb-15 18:29N 34°35' E 135°27'0 0.0
2018-Feb-15 17:56N 34°35' E 135°27'0 0.0
2018-Feb-15 17:29N 34°35' E 135°27'0 0.0
2018-Feb-15 16:59N 34°35' E 135°27'0 0.0
2018-Feb-15 16:29N 34°35' E 135°27'0 0.0
2018-Feb-15 15:59N 34°35' E 135°27'0 0.0
2018-Feb-15 15:29N 34°35' E 135°27'0 0.0
2018-Feb-15 14:59N 34°35' E 135°27'0 0.0
2018-Feb-15 14:29N 34°35' E 135°27'0 0.0
2018-Feb-15 13:59N 34°35' E 135°27'0 0.0
2018-Feb-15 13:29N 34°35' E 135°27'0 0.0
2018-Feb-15 12:59N 34°35' E 135°27'0 0.0
2018-Feb-15 12:29N 34°35' E 135°27'0 0.0
2018-Feb-15 11:59N 34°35' E 135°27'0 0.0
2018-Feb-15 11:29N 34°35' E 135°27'0 0.0
2018-Feb-15 10:59N 34°35' E 135°27'0 0.0
2018-Feb-15 10:29N 34°35' E 135°27'0 0.0
2018-Feb-15 09:59N 34°35' E 135°27'0 0.0
2018-Feb-15 09:29N 34°35' E 135°27'0 0.0
2018-Feb-15 08:59N 34°35' E 135°27'0 0.0
2018-Feb-15 08:29N 34°35' E 135°27'0 0.0
2018-Feb-15 07:59N 34°35' E 135°27'0 0.0
2018-Feb-15 07:29N 34°35' E 135°27'0 0.0
2018-Feb-15 06:59N 34°35' E 135°27'0 0.0
2018-Feb-15 06:23N 34°35' E 135°27'0 0.1
2018-Feb-15 05:59N 34°35' E 135°27'3 6.3
2018-Feb-15 05:30N 34°35' E 135°24'4 7.4
2018-Feb-15 04:59N 34°31' E 135°23'0 0.0
2018-Feb-15 04:29N 34°31' E 135°23'0 0.0
2018-Feb-15 03:59N 34°31' E 135°23'0 0.1
2018-Feb-15 03:29N 34°31' E 135°23'3 5.4
2018-Feb-15 03:00N 34°34' E 135°23'611.8
2018-Feb-15 02:30N 34°39' E 135°25'1 1.8
2018-Feb-15 01:58N 34°40' E 135°25'0 0.0
2018-Feb-15 01:28N 34°40' E 135°25'0 0.0
2018-Feb-15 00:59N 34°40' E 135°25'0 0.0
2018-Feb-15 00:28N 34°40' E 135°25'0 0.0
2018-Feb-14 23:58N 34°40' E 135°25'0 0.0
2018-Feb-14 23:29N 34°40' E 135°25'0 0.0
2018-Feb-14 22:58N 34°40' E 135°25'0 0.1
2018-Feb-14 22:30N 34°40' E 135°25'1 2.0
2018-Feb-14 22:00N 34°40' E 135°26'1 1.4
2018-Feb-14 21:28N 34°40' E 135°27'0 0.0
2018-Feb-14 20:58N 34°40' E 135°27'0 0.0
2018-Feb-14 20:28N 34°40' E 135°27'0 0.0
2018-Feb-14 19:58N 34°40' E 135°27'0 0.0
2018-Feb-14 19:28N 34°40' E 135°27'0 0.0
2018-Feb-14 18:55N 34°40' E 135°27'0 0.0
2018-Feb-14 18:28N 34°40' E 135°27'0 0.0
2018-Feb-14 17:58N 34°40' E 135°27'0 0.0
2018-Feb-14 17:28N 34°40' E 135°27'0 0.0
2018-Feb-14 16:58N 34°40' E 135°27'0 0.0
2018-Feb-14 16:28N 34°40' E 135°27'0 0.0
2018-Feb-14 15:58N 34°40' E 135°27'0 0.0
2018-Feb-14 15:28N 34°40' E 135°27'0 0.0
2018-Feb-14 14:58N 34°40' E 135°27'0 0.0
2018-Feb-14 14:28N 34°40' E 135°27'0 0.0
2018-Feb-14 13:58N 34°40' E 135°27'0 0.0
2018-Feb-14 13:28N 34°40' E 135°27'0 0.0
2018-Feb-14 12:55N 34°40' E 135°27'0 0.0
2018-Feb-14 12:28N 34°40' E 135°27'0 0.0
2018-Feb-14 11:58N 34°40' E 135°27'0 0.0
2018-Feb-14 11:28N 34°40' E 135°27'0 0.0
2018-Feb-14 10:58N 34°40' E 135°27'0 0.0
2018-Feb-14 10:28N 34°40' E 135°27'0 0.0
2018-Feb-14 09:58N 34°40' E 135°27'0 0.0
2018-Feb-14 09:28N 34°40' E 135°27'0 0.0
2018-Feb-14 08:58N 34°40' E 135°27'0 0.0
2018-Feb-14 08:28N 34°40' E 135°27'0 0.0
2018-Feb-14 07:58N 34°40' E 135°27'0 0.0
2018-Feb-14 07:28N 34°40' E 135°27'0 0.0
2018-Feb-14 06:58N 34°40' E 135°27'0 0.0
2018-Feb-14 06:28N 34°40' E 135°27'2 4.4
2018-Feb-14 06:00N 34°39' E 135°25'611.6
2018-Feb-14 05:30N 34°33' E 135°23'2 4.3
2018-Feb-14 05:00N 34°31' E 135°23'0 0.0
2018-Feb-14 04:30N 34°31' E 135°23'0 0.0
2018-Feb-14 04:00N 34°31' E 135°23'0 0.0
2018-Feb-14 03:30N 34°31' E 135°23'3 6.0
2018-Feb-14 03:00N 34°34' E 135°23'511.1
2018-Feb-14 02:31N 34°40' E 135°25'1 1.8
2018-Feb-14 01:59N 34°40' E 135°25'0 0.0
2018-Feb-14 01:29N 34°40' E 135°25'0 0.0
2018-Feb-14 00:59N 34°40' E 135°25'0 0.0
2018-Feb-14 00:29N 34°40' E 135°25'0 0.0
2018-Feb-13 23:59N 34°40' E 135°25'0 0.0
2018-Feb-13 23:29N 34°40' E 135°25'0 0.0
2018-Feb-13 22:59N 34°40' E 135°25'0 0.1
2018-Feb-13 22:30N 34°40' E 135°25'1 2.0
2018-Feb-13 22:00N 34°40' E 135°26'1 1.1
2018-Feb-13 21:26N 34°40' E 135°27'0 0.0
2018-Feb-13 20:59N 34°40' E 135°27'0 0.0
2018-Feb-13 20:29N 34°40' E 135°27'0 0.0
2018-Feb-13 19:56N 34°40' E 135°27'0 0.0
2018-Feb-13 19:29N 34°40' E 135°27'0 0.0
2018-Feb-13 18:59N 34°40' E 135°27'0 0.0
2018-Feb-13 18:29N 34°40' E 135°27'0 0.0
2018-Feb-13 17:59N 34°40' E 135°27'0 0.0
2018-Feb-13 17:29N 34°40' E 135°27'0 0.0
2018-Feb-13 16:59N 34°40' E 135°27'0 0.0
2018-Feb-13 16:29N 34°40' E 135°27'0 0.0
2018-Feb-13 15:59N 34°40' E 135°27'0 0.0
2018-Feb-13 15:29N 34°40' E 135°27'0 0.0
2018-Feb-13 14:59N 34°40' E 135°27'0 0.0
2018-Feb-13 14:26N 34°40' E 135°27'0 0.0
2018-Feb-13 13:59N 34°40' E 135°27'0 0.0
2018-Feb-13 13:29N 34°40' E 135°27'0 0.0
2018-Feb-13 12:59N 34°40' E 135°27'0 0.0
2018-Feb-13 12:29N 34°40' E 135°27'0 0.0
2018-Feb-13 11:59N 34°40' E 135°27'0 0.0
2018-Feb-13 11:29N 34°40' E 135°27'0 0.0
2018-Feb-13 10:59N 34°40' E 135°27'0 0.0
2018-Feb-13 10:29N 34°40' E 135°27'0 0.0
2018-Feb-13 09:59N 34°40' E 135°27'0 0.0
2018-Feb-13 09:29N 34°40' E 135°27'0 0.0
2018-Feb-13 08:59N 34°40' E 135°27'0 0.0
2018-Feb-13 08:29N 34°40' E 135°27'0 0.0
2018-Feb-13 07:59N 34°40' E 135°27'0 0.0
2018-Feb-13 07:26N 34°40' E 135°27'0 0.0
2018-Feb-13 06:59N 34°40' E 135°27'0 0.0
2018-Feb-13 06:29N 34°40' E 135°27'0 0.0
2018-Feb-13 05:59N 34°40' E 135°27'0 0.0
2018-Feb-13 05:29N 34°40' E 135°27'0 0.0
2018-Feb-13 04:56N 34°40' E 135°27'0 0.0
2018-Feb-13 04:29N 34°40' E 135°27'0 0.0
2018-Feb-13 03:59N 34°40' E 135°27'0 0.0
2018-Feb-13 03:29N 34°40' E 135°27'0 0.0
2018-Feb-13 02:59N 34°40' E 135°27'0 0.0
2018-Feb-13 02:29N 34°40' E 135°27'0 0.0
2018-Feb-13 01:56N 34°40' E 135°27'0 0.5
2018-Feb-13 01:29N 34°40' E 135°27'4 8.8
2018-Feb-13 01:00N 34°37' E 135°24'3 6.1
2018-Feb-13 00:29N 34°35' E 135°27'0 0.0
2018-Feb-12 23:59N 34°35' E 135°27'0 0.0
2018-Feb-12 23:29N 34°35' E 135°27'0 0.0
2018-Feb-12 22:59N 34°35' E 135°27'0 0.0
2018-Feb-12 22:29N 34°35' E 135°27'0 0.0
2018-Feb-12 21:59N 34°35' E 135°27'0 0.0
2018-Feb-12 21:29N 34°35' E 135°27'0 0.0
2018-Feb-12 20:56N 34°35' E 135°27'0 0.3
2018-Feb-12 20:30N 34°35' E 135°27'510.0
2018-Feb-12 20:00N 34°36' E 135°21'612.5
2018-Feb-12 19:29N 34°35' E 135°13'612.6
2018-Feb-12 19:00N 34°35' E 135°06'612.7
2018-Feb-12 18:30N 34°37' E 134°59'712.9
2018-Feb-12 17:59N 34°37' E 134°51'  
2018-Feb-09 09:00N 34°37' E 134°55'612.9
2018-Feb-09 08:30N 34°36' E 135°03'713.1
2018-Feb-09 08:00N 34°37' E 135°11'12 2.9
2018-Feb-09 04:00N 34°39' E 135°24'611.8
2018-Feb-09 03:30N 34°38' E 135°17'612.1
2018-Feb-09 03:00N 34°36' E 135°11'  

Dump ship's entire track history